Time;durP1;ratioP1;P1;durP2;ratioP2;P2;SDS_P1;SDS_P2;PMS_P1;PMS_P2;Temp;Humidity;BMP_temperature;BMP_pressure;BME280_temperature;BME280_humidity;BME280_pressure;Samples;Min_cycle;Max_cycle;Signal;HPM_P1;HPM_P2
2022/12/23 00:02:21;;;;;;;62.75;35.15;;;7.90;99.90;;;;;;5045475;28;20065;-69
2022/12/23 00:04:47;;;;;;;81.15;34.65;;;7.80;99.90;;;;;;5080926;28;20052;-69
2022/12/23 00:07:12;;;;;;;61.22;32.28;;;7.90;99.90;;;;;;5074931;28;20048;-69
2022/12/23 00:09:38;;;;;;;63.88;33.38;;;7.80;99.90;;;;;;5056994;28;20124;-69
2022/12/23 00:15:06;;;;;;;61.03;35.33;;;7.80;99.90;;;;;;5058247;28;20072;-69
2022/12/23 00:17:36;;;;;;;58.17;31.48;;;7.90;99.90;;;;;;5059502;28;20128;-69
2022/12/23 00:20:04;;;;;;;60.90;32.75;;;7.90;99.90;;;;;;5054125;28;20494;-69
2022/12/23 00:25:15;;;;;;;62.60;33.88;;;7.90;99.90;;;;;;5077283;28;20055;-69
2022/12/23 00:27:41;;;;;;;68.38;35.78;;;7.90;99.90;;;;;;5084113;28;20123;-69
2022/12/23 00:30:08;;;;;;;57.85;31.90;;;7.80;99.90;;;;;;5080613;28;20048;-69
2022/12/23 00:32:34;;;;;;;69.07;34.65;;;7.90;99.90;;;;;;5065485;28;20051;-69
2022/12/23 00:35:00;;;;;;;68.18;32.95;;;7.90;99.90;;;;;;5062902;28;20044;-69
2022/12/23 00:37:28;;;;;;;72.05;35.25;;;7.70;99.90;;;;;;5078121;28;20048;-69
2022/12/23 00:42:53;;;;;;;194.30;41.13;;;7.80;99.90;;;;;;5090338;28;20082;-70
2022/12/23 00:45:19;;;;;;;62.05;33.40;;;7.90;99.90;;;;;;5086075;28;20045;-70
2022/12/23 00:50:32;;;;;;;92.15;37.33;;;7.70;99.90;;;;;;5067530;28;20056;-70
2022/12/23 00:52:58;;;;;;;66.93;35.10;;;7.80;99.90;;;;;;5070699;28;20084;-70
2022/12/23 00:55:24;;;;;;;63.50;35.22;;;7.70;99.90;;;;;;5066774;28;20401;-70
2022/12/23 00:57:50;;;;;;;67.25;34.50;;;7.90;99.90;;;;;;5069410;28;20493;-70
2022/12/23 01:00:16;;;;;;;79.47;37.03;;;7.70;99.90;;;;;;5066726;28;20073;-69
2022/12/23 01:05:35;;;;;;;68.65;35.90;;;7.80;99.90;;;;;;5072124;28;20063;-69
2022/12/23 01:08:07;;;;;;;81.90;34.65;;;7.90;99.90;;;;;;5068844;28;20036;-69
2022/12/23 01:10:38;;;;;;;61.35;34.78;;;7.90;99.90;;;;;;5065008;28;20556;-70
2022/12/23 01:13:04;;;;;;;110.30;37.97;;;7.80;99.90;;;;;;5062330;28;20115;-69
2022/12/23 01:15:30;;;;;;;63.22;34.60;;;7.80;99.90;;;;;;5067790;28;20072;-70
2022/12/23 01:17:56;;;;;;;68.93;35.72;;;7.80;99.90;;;;;;5055714;28;20056;-68
2022/12/23 01:20:22;;;;;;;85.40;37.70;;;7.80;99.90;;;;;;5088129;28;20063;-68
2022/12/23 01:22:48;;;;;;;81.57;36.47;;;7.90;99.90;;;;;;5061448;28;20053;-69
2022/12/23 01:25:14;;;;;;;73.28;35.65;;;7.80;99.90;;;;;;5056649;28;20094;-69
2022/12/23 01:27:39;;;;;;;75.72;36.05;;;7.90;99.90;;;;;;5079472;28;20079;-69
2022/12/23 01:30:06;;;;;;;79.82;36.92;;;7.90;99.90;;;;;;5055533;28;20045;-69
2022/12/23 01:32:31;;;;;;;118.85;38.22;;;7.70;99.90;;;;;;5040882;28;20049;-69
2022/12/23 01:34:57;;;;;;;79.40;35.38;;;7.80;99.90;;;;;;5056677;28;20055;-69
2022/12/23 01:37:23;;;;;;;88.28;36.63;;;7.70;99.90;;;;;;5074733;28;20084;-69
2022/12/23 01:39:48;;;;;;;73.28;36.10;;;7.70;99.90;;;;;;5065780;28;20119;-70
2022/12/23 01:45:22;;;;;;;81.13;37.00;;;7.60;99.90;;;;;;5063519;28;20455;-70
2022/12/23 01:47:57;;;;;;;170.77;37.53;;;7.70;99.90;;;;;;5070161;28;20098;-70
2022/12/23 01:50:31;;;;;;;109.70;35.60;;;7.60;99.90;;;;;;5068588;28;20116;-70
2022/12/23 01:53:03;;;;;;;82.97;35.53;;;7.70;99.90;;;;;;5061502;28;20052;-70
2022/12/23 01:55:32;;;;;;;66.78;32.70;;;7.60;99.90;;;;;;5063919;28;20056;-70
2022/12/23 01:58:09;;;;;;;69.05;33.03;;;7.60;99.90;;;;;;5050243;28;20079;-70
2022/12/23 02:11:56;;;;;;;101.80;34.65;;;7.60;99.90;;;;;;5054021;28;20071;-70
2022/12/23 02:17:43;;;;;;;101.85;35.40;;;7.70;99.90;;;;;;5077121;28;20052;-69
2022/12/23 02:20:41;;;;;;;98.72;36.55;;;7.70;99.90;;;;;;5065026;28;20045;-70
2022/12/23 02:23:44;;;;;;;111.38;35.33;;;7.60;99.90;;;;;;5041486;28;20524;-70
2022/12/23 02:26:41;;;;;;;92.78;35.58;;;7.50;99.90;;;;;;5074118;28;20052;-70
2022/12/23 02:29:35;;;;;;;86.28;34.25;;;7.60;99.90;;;;;;5076769;28;20060;-70
2022/12/23 02:32:07;;;;;;;110.25;34.85;;;7.50;99.90;;;;;;5073367;28;20049;-70
2022/12/23 02:34:58;;;;;;;81.75;35.17;;;7.60;99.90;;;;;;5061586;28;20041;-70
2022/12/23 02:37:42;;;;;;;87.10;34.95;;;7.60;99.90;;;;;;5067630;28;20053;-68
2022/12/23 02:40:20;;;;;;;65.63;32.15;;;7.40;99.90;;;;;;5048243;28;20111;-69
2022/12/23 02:42:58;;;;;;;67.55;33.63;;;7.50;99.90;;;;;;5061476;28;20484;-69
2022/12/23 02:46:22;;;;;;;70.32;31.35;;;7.60;99.90;;;;;;5067687;28;20056;-70
2022/12/23 02:48:48;;;;;;;71.65;31.75;;;7.60;99.90;;;;;;4987156;28;20059;-70
2022/12/23 02:51:15;;;;;;;74.35;31.83;;;7.40;99.90;;;;;;4987608;28;20046;-70
2022/12/23 02:53:47;;;;;;;64.97;31.63;;;7.60;99.90;;;;;;5005221;28;20080;-70
2022/12/23 02:56:16;;;;;;;70.57;29.85;;;7.50;99.90;;;;;;4992991;28;20047;-70
2022/12/23 02:58:50;;;;;;;69.55;30.38;;;7.60;99.90;;;;;;4984774;28;20050;-70
2022/12/23 03:01:17;;;;;;;64.10;29.88;;;7.60;99.90;;;;;;4994861;28;20106;-70
2022/12/23 03:03:45;;;;;;;65.22;30.65;;;7.60;99.90;;;;;;4988583;28;20130;-68
2022/12/23 03:06:25;;;;;;;79.18;30.67;;;7.60;99.90;;;;;;4991459;28;20090;-68
2022/12/23 03:08:55;;;;;;;97.82;32.20;;;7.60;99.90;;;;;;4978589;28;20539;-69
2022/12/23 03:11:24;;;;;;;77.07;30.65;;;7.50;99.90;;;;;;5002032;28;20038;-69
2022/12/23 03:14:14;;;;;;;77.90;28.38;;;7.50;99.90;;;;;;4982482;28;20057;-69
2022/12/23 03:16:56;;;;;;;58.05;26.65;;;7.60;99.90;;;;;;4986632;28;20077;-69
2022/12/23 03:19:47;;;;;;;58.33;28.35;;;7.50;99.90;;;;;;5036649;28;20132;-69
2022/12/23 03:22:15;;;;;;;53.78;26.00;;;7.50;99.90;;;;;;5051759;28;20048;-69
2022/12/23 03:24:59;;;;;;;64.80;27.13;;;7.60;99.90;;;;;;5053729;28;20051;-69
2022/12/23 03:27:46;;;;;;;64.82;26.00;;;7.50;99.90;;;;;;5077409;28;20076;-69
2022/12/23 03:30:18;;;;;;;66.90;25.42;;;7.60;99.90;;;;;;5070354;28;20037;-69
2022/12/23 03:32:53;;;;;;;65.97;26.27;;;7.70;99.90;;;;;;5072550;28;20104;-69
2022/12/23 03:35:25;;;;;;;55.55;23.98;;;7.60;99.90;;;;;;5071095;28;20535;-69
2022/12/23 03:37:53;;;;;;;57.50;24.30;;;7.80;99.90;;;;;;5070272;28;20519;-69
2022/12/23 03:40:23;;;;;;;53.67;24.30;;;7.80;99.90;;;;;;5061351;28;20055;-69
2022/12/23 03:42:56;;;;;;;57.20;25.02;;;7.70;99.90;;;;;;5061419;28;20048;-69
2022/12/23 03:45:33;;;;;;;58.92;25.13;;;7.70;99.90;;;;;;5066358;28;20041;-69
2022/12/23 03:48:04;;;;;;;67.95;26.15;;;7.70;99.90;;;;;;5054980;28;20509;-69
2022/12/23 03:50:32;;;;;;;60.75;25.40;;;7.70;99.90;;;;;;5053861;28;20064;-68
2022/12/23 03:53:05;;;;;;;68.38;26.08;;;7.80;99.90;;;;;;5052428;28;20044;-69
2022/12/23 03:55:39;;;;;;;63.60;26.27;;;7.90;99.90;;;;;;5064389;28;20405;-69
2022/12/23 03:58:20;;;;;;;68.32;25.58;;;7.90;99.90;;;;;;5066043;28;20040;-69
2022/12/23 04:01:00;;;;;;;72.18;26.83;;;7.70;99.90;;;;;;5054422;28;20049;-69
2022/12/23 04:03:48;;;;;;;63.20;25.83;;;7.70;99.90;;;;;;5048109;28;20045;-70
2022/12/23 04:06:16;;;;;;;67.65;25.63;;;7.60;99.90;;;;;;5071163;28;20103;-70
2022/12/23 04:08:44;;;;;;;67.47;25.05;;;7.60;99.90;;;;;;5052673;28;20487;-70
2022/12/23 04:11:10;;;;;;;70.50;25.25;;;7.50;99.90;;;;;;5047543;28;20049;-70
2022/12/23 04:13:36;;;;;;;68.93;26.17;;;7.50;99.90;;;;;;5053629;28;20056;-70
2022/12/23 04:16:02;;;;;;;74.43;23.58;;;7.50;99.90;;;;;;5048185;28;20080;-70
2022/12/23 04:18:28;;;;;;;75.68;24.88;;;7.60;99.90;;;;;;5062306;28;20053;-70
2022/12/23 04:20:54;;;;;;;78.32;25.65;;;7.60;99.90;;;;;;5062592;28;20079;-70
2022/12/23 04:23:19;;;;;;;72.95;24.08;;;7.50;99.90;;;;;;5063268;28;20053;-70
2022/12/23 04:25:45;;;;;;;67.10;23.40;;;7.60;99.90;;;;;;5062862;28;20128;-70
2022/12/23 04:28:11;;;;;;;54.63;22.38;;;7.60;99.90;;;;;;5058275;28;20192;-70
2022/12/23 04:30:36;;;;;;;58.60;22.88;;;7.50;99.90;;;;;;5064721;28;20072;-70
2022/12/23 04:33:02;;;;;;;65.20;23.08;;;7.60;99.90;;;;;;5084788;28;20056;-70
2022/12/23 04:35:29;;;;;;;78.20;24.08;;;7.40;99.90;;;;;;5084282;28;20037;-68
2022/12/23 04:37:55;;;;;;;66.07;22.98;;;7.40;99.90;;;;;;5066719;28;20048;-68
2022/12/23 04:40:20;;;;;;;65.13;22.38;;;7.40;99.90;;;;;;5062302;28;20131;-69
2022/12/23 04:42:46;;;;;;;69.15;23.00;;;7.40;99.90;;;;;;5074686;28;20131;-70
2022/12/23 04:45:12;;;;;;;66.82;22.05;;;7.40;99.90;;;;;;5093354;28;20069;-70
2022/12/23 04:47:37;;;;;;;67.75;22.33;;;7.30;99.90;;;;;;5046638;28;20091;-70
2022/12/23 04:50:04;;;;;;;68.78;20.98;;;7.30;99.90;;;;;;5063061;28;20044;-70
2022/12/23 04:52:30;;;;;;;85.20;22.20;;;7.20;99.90;;;;;;5057401;28;20056;-70
2022/12/23 04:54:55;;;;;;;65.15;20.98;;;7.20;99.90;;;;;;5049149;28;20176;-70
2022/12/23 04:57:21;;;;;;;95.45;24.52;;;7.20;99.90;;;;;;5065921;28;20236;-70
2022/12/23 04:59:47;;;;;;;121.72;23.65;;;7.00;99.90;;;;;;5063213;28;20045;-70
2022/12/23 05:02:12;;;;;;;65.90;19.30;;;7.10;99.90;;;;;;5057102;28;20062;-70
2022/12/23 05:04:38;;;;;;;84.95;23.13;;;7.00;99.90;;;;;;5062601;28;20128;-70
2022/12/23 05:07:04;;;;;;;65.32;20.15;;;7.00;99.90;;;;;;5053950;28;20048;-70
2022/12/23 05:09:29;;;;;;;79.63;23.38;;;7.10;99.90;;;;;;5051557;28;20044;-70
2022/12/23 05:11:55;;;;;;;93.68;23.73;;;7.00;99.90;;;;;;5055091;28;20044;-70
2022/12/23 05:14:21;;;;;;;68.93;22.20;;;7.10;99.90;;;;;;5083598;28;20232;-70
2022/12/23 05:16:46;;;;;;;93.70;23.88;;;7.10;99.90;;;;;;5045701;28;20105;-70
2022/12/23 05:19:12;;;;;;;70.57;23.00;;;7.20;99.90;;;;;;5060019;28;20135;-70
2022/12/23 05:21:38;;;;;;;83.07;22.73;;;7.10;99.90;;;;;;5057407;28;20040;-69
2022/12/23 05:24:04;;;;;;;100.28;22.17;;;7.10;99.90;;;;;;5078124;28;20040;-70
2022/12/23 05:26:29;;;;;;;105.00;23.95;;;6.90;99.90;;;;;;5074280;28;20056;-70
2022/12/23 05:28:55;;;;;;;111.78;22.42;;;7.00;99.90;;;;;;5063049;28;20485;-70
2022/12/23 05:31:21;;;;;;;135.63;24.20;;;6.90;99.90;;;;;;5060126;28;20049;-70
2022/12/23 05:33:47;;;;;;;98.55;22.33;;;6.80;99.90;;;;;;5068990;28;20084;-70
2022/12/23 05:36:12;;;;;;;115.57;26.30;;;6.70;99.90;;;;;;5062566;28;20045;-70
2022/12/23 05:38:38;;;;;;;86.85;24.70;;;6.90;99.90;;;;;;5061802;28;20484;-70
2022/12/23 05:41:04;;;;;;;104.35;27.65;;;6.90;99.90;;;;;;5056003;28;20068;-70
2022/12/23 05:43:30;;;;;;;134.23;28.17;;;6.90;99.90;;;;;;5056143;28;20478;-70
2022/12/23 05:45:56;;;;;;;79.40;25.70;;;6.80;99.90;;;;;;5068367;28;20055;-70
2022/12/23 05:48:22;;;;;;;171.90;27.50;;;7.00;99.90;;;;;;5044659;28;20044;-70
2022/12/23 05:50:49;;;;;;;136.77;27.52;;;6.80;99.90;;;;;;5069485;28;20512;-70
2022/12/23 05:53:15;;;;;;;135.63;27.17;;;7.00;99.90;;;;;;5068806;28;20048;-70
2022/12/23 05:55:41;;;;;;;172.15;29.13;;;7.00;99.90;;;;;;5051477;28;20051;-70
2022/12/23 05:58:07;;;;;;;170.40;29.42;;;7.00;99.90;;;;;;5067564;28;20120;-70
2022/12/23 06:00:33;;;;;;;186.45;28.98;;;7.00;99.90;;;;;;5048498;28;20041;-70
2022/12/23 06:02:58;;;;;;;114.85;27.13;;;6.80;99.90;;;;;;5054768;28;20497;-70
2022/12/23 06:05:24;;;;;;;135.25;27.25;;;6.80;99.90;;;;;;5051942;28;20051;-70
2022/12/23 06:07:50;;;;;;;79.85;25.92;;;6.80;99.90;;;;;;5028873;28;20797;-71
2022/12/23 06:10:15;;;;;;;117.78;26.25;;;6.90;99.90;;;;;;5041813;28;20614;-70
2022/12/23 06:12:41;;;;;;;164.50;27.40;;;6.80;99.90;;;;;;5041934;28;20253;-70
2022/12/23 06:15:07;;;;;;;167.55;25.95;;;6.80;99.90;;;;;;5040867;28;20116;-70
2022/12/23 06:17:33;;;;;;;133.82;25.48;;;6.60;99.90;;;;;;5034819;28;20053;-70
2022/12/23 06:19:58;;;;;;;142.98;28.33;;;6.60;99.90;;;;;;5050693;28;20144;-71
2022/12/23 06:22:24;;;;;;;194.25;29.33;;;6.70;99.90;;;;;;5040661;28;20457;-71
2022/12/23 06:24:50;;;;;;;175.77;26.17;;;6.80;99.90;;;;;;5044187;28;20044;-71
2022/12/23 06:27:16;;;;;;;209.32;27.15;;;6.80;99.90;;;;;;5041069;28;20037;-71
2022/12/23 06:29:42;;;;;;;172.27;26.13;;;6.60;99.90;;;;;;5049624;28;20086;-71
2022/12/23 06:32:07;;;;;;;203.32;26.98;;;6.80;99.90;;;;;;5045505;28;20064;-71
2022/12/23 06:34:33;;;;;;;203.98;27.85;;;6.70;99.90;;;;;;5050482;28;20044;-70
2022/12/23 06:36:59;;;;;;;383.15;30.02;;;6.80;99.90;;;;;;5064413;28;20079;-71
2022/12/23 06:39:25;;;;;;;393.73;31.70;;;6.70;99.90;;;;;;5061418;28;20037;-72
2022/12/23 06:41:51;;;;;;;476.50;31.08;;;6.90;99.90;;;;;;5048634;28;20048;-71
2022/12/23 06:44:17;;;;;;;398.05;26.95;;;6.70;99.90;;;;;;5047170;28;20083;-71
2022/12/23 06:46:42;;;;;;;387.08;29.55;;;6.90;99.90;;;;;;5049885;28;20060;-71
2022/12/23 06:49:08;;;;;;;425.10;30.45;;;6.70;99.90;;;;;;5056639;28;20037;-71
2022/12/23 06:51:34;;;;;;;248.18;24.00;;;6.90;99.90;;;;;;5046876;28;20041;-73
2022/12/23 06:53:59;;;;;;;306.70;28.10;;;6.70;99.90;;;;;;5059569;28;20120;-69
2022/12/23 06:56:26;;;;;;;285.27;25.67;;;6.80;99.90;;;;;;5050400;28;20125;-71
2022/12/23 06:58:51;;;;;;;345.92;28.42;;;6.80;99.90;;;;;;5057267;28;20525;-69
2022/12/23 07:01:20;;;;;;;353.98;28.33;;;6.90;99.90;;;;;;5059478;28;20112;-68
2022/12/23 07:03:48;;;;;;;367.08;28.00;;;6.80;99.90;;;;;;5051159;28;20053;-69
2022/12/23 07:06:14;;;;;;;219.80;23.58;;;6.70;99.90;;;;;;5079025;28;20083;-70
2022/12/23 07:08:39;;;;;;;236.05;23.83;;;6.60;99.90;;;;;;5032490;28;20045;-71
2022/12/23 07:11:05;;;;;;;276.20;24.08;;;6.60;99.90;;;;;;5075743;28;20052;-71
2022/12/23 07:13:32;;;;;;;401.67;27.20;;;6.60;99.90;;;;;;5030860;28;20061;-71
2022/12/23 07:16:03;;;;;;;324.45;25.27;;;6.70;99.90;;;;;;5068074;28;20045;-70
2022/12/23 07:18:28;;;;;;;395.90;27.38;;;6.60;99.90;;;;;;5053154;28;20060;-69
2022/12/23 07:20:58;;;;;;;361.85;26.20;;;6.70;99.90;;;;;;5073449;28;20456;-70
2022/12/23 07:23:24;;;;;;;339.25;26.13;;;6.50;99.90;;;;;;5023881;28;20049;-70
2022/12/23 07:25:50;;;;;;;315.08;23.83;;;6.60;99.90;;;;;;5069154;28;20083;-68
2022/12/23 07:28:15;;;;;;;414.23;27.40;;;6.60;99.90;;;;;;5068579;28;20087;-76
2022/12/23 07:30:41;;;;;;;422.73;27.80;;;6.60;99.90;;;;;;5074498;28;20043;-73
2022/12/23 07:33:07;;;;;;;350.85;25.35;;;6.70;99.90;;;;;;5041616;28;20053;-64
2022/12/23 07:35:32;;;;;;;377.65;28.45;;;6.60;99.90;;;;;;5056811;28;20058;-66
2022/12/23 07:37:58;;;;;;;383.00;26.25;;;6.60;99.90;;;;;;5061712;28;20052;-67
2022/12/23 07:40:25;;;;;;;336.98;26.13;;;6.70;99.90;;;;;;5060350;28;20474;-67
2022/12/23 07:42:56;;;;;;;375.58;26.02;;;6.60;99.90;;;;;;5048129;28;20049;-66
2022/12/23 07:45:22;;;;;;;261.00;21.20;;;6.70;99.90;;;;;;5028180;28;20044;-66
2022/12/23 07:47:53;;;;;;;259.25;22.40;;;6.70;99.90;;;;;;5022217;28;20537;-67
2022/12/23 07:50:19;;;;;;;295.02;24.05;;;6.80;99.90;;;;;;5048026;28;20049;-66
2022/12/23 07:52:44;;;;;;;242.25;21.02;;;6.80;99.90;;;;;;5023965;28;20045;-66
2022/12/23 07:55:10;;;;;;;343.42;23.77;;;6.70;99.90;;;;;;5047907;28;20088;-63
2022/12/23 07:57:36;;;;;;;347.55;25.17;;;6.60;99.90;;;;;;5043041;28;20164;-63
2022/12/23 08:00:21;;;;;;;331.63;24.35;;;6.60;99.90;;;;;;5054838;28;20473;-64
2022/12/23 08:02:47;;;;;;;277.60;21.88;;;6.60;99.90;;;;;;5027743;28;20045;-64
2022/12/23 08:05:13;;;;;;;329.23;23.98;;;6.60;99.90;;;;;;5043865;28;20099;-64
2022/12/23 08:07:39;;;;;;;304.15;23.88;;;6.70;99.90;;;;;;5023540;28;20481;-64
2022/12/23 08:10:06;;;;;;;286.70;23.75;;;6.80;99.90;;;;;;5054165;28;20075;-66
2022/12/23 08:12:32;;;;;;;224.07;21.50;;;6.80;99.90;;;;;;5045240;28;20064;-68
2022/12/23 08:14:58;;;;;;;284.90;23.63;;;6.80;99.90;;;;;;5055828;28;20048;-64
2022/12/23 08:17:28;;;;;;;228.15;21.65;;;6.70;99.90;;;;;;5038827;28;20077;-65
2022/12/23 08:19:54;;;;;;;191.82;20.67;;;6.70;99.90;;;;;;5049681;28;20049;-65
2022/12/23 08:22:19;;;;;;;169.18;21.60;;;6.70;99.90;;;;;;5014811;28;20120;-65
2022/12/23 08:24:45;;;;;;;202.82;19.55;;;6.60;99.90;;;;;;5029100;28;20623;-65
2022/12/23 08:27:11;;;;;;;71.63;15.57;;;6.70;99.90;;;;;;5018276;28;20073;-65
2022/12/23 08:29:38;;;;;;;116.60;18.45;;;6.80;99.90;;;;;;5028357;28;20049;-66
2022/12/23 08:32:05;;;;;;;158.95;19.02;;;6.80;99.90;;;;;;5037387;28;20060;-65
2022/12/23 08:34:30;;;;;;;120.70;19.65;;;6.80;99.90;;;;;;5038652;28;20037;-65
2022/12/23 08:36:56;;;;;;;73.88;15.77;;;6.90;99.90;;;;;;5019180;28;20036;-66
2022/12/23 08:39:22;;;;;;;191.55;19.73;;;6.90;99.90;;;;;;5040817;28;20053;-64
2022/12/23 08:41:48;;;;;;;142.45;19.10;;;7.00;99.90;;;;;;5040093;28;20077;-64
2022/12/23 08:44:14;;;;;;;131.35;19.15;;;6.90;99.90;;;;;;5032579;28;20045;-64
2022/12/23 08:46:41;;;;;;;101.45;19.23;;;6.90;99.90;;;;;;5055638;28;20045;-65
2022/12/23 08:49:08;;;;;;;102.45;21.52;;;6.80;99.90;;;;;;5051949;28;20059;-65
2022/12/23 08:51:35;;;;;;;135.13;21.15;;;7.00;99.90;;;;;;5051462;28;20048;-64
2022/12/23 08:54:00;;;;;;;118.07;17.67;;;6.90;99.90;;;;;;5045004;28;20098;-64
2022/12/23 08:56:29;;;;;;;77.68;17.48;;;6.70;99.90;;;;;;5060825;28;20053;-62
2022/12/23 08:58:55;;;;;;;97.78;16.92;;;6.80;99.90;;;;;;5037222;28;20120;-61
2022/12/23 09:01:24;;;;;;;128.35;19.50;;;6.90;99.90;;;;;;5069612;28;20052;-61
2022/12/23 09:03:50;;;;;;;88.40;16.13;;;6.80;99.90;;;;;;5069160;28;20052;-62
2022/12/23 09:06:22;;;;;;;79.43;17.85;;;6.80;99.90;;;;;;5069699;28;20055;-62
2022/12/23 09:08:48;;;;;;;77.30;17.65;;;6.90;99.90;;;;;;5045882;28;20056;-62
2022/12/23 09:11:20;;;;;;;76.07;16.33;;;7.00;99.90;;;;;;5072603;28;20111;-62
2022/12/23 09:13:47;;;;;;;63.83;16.60;;;6.90;99.90;;;;;;5056781;28;20071;-63
2022/12/23 09:16:13;;;;;;;58.05;17.02;;;7.00;99.90;;;;;;5073135;28;20045;-62
2022/12/23 09:18:40;;;;;;;56.53;19.40;;;7.00;99.90;;;;;;5051510;28;20431;-62
2022/12/23 09:21:10;;;;;;;49.90;16.67;;;7.00;99.90;;;;;;5067082;28;20091;-62
2022/12/23 09:23:36;;;;;;;42.30;13.77;;;6.90;99.90;;;;;;5050756;28;20045;-62
2022/12/23 09:26:06;;;;;;;45.05;14.52;;;7.10;99.90;;;;;;5066532;28;20060;-63
2022/12/23 09:28:32;;;;;;;;;;;7.20;99.90;;;;;;5042416;28;20064;-64
2022/12/23 09:31:04;;;;;;;56.53;15.07;;;7.00;99.90;;;;;;5072304;28;19924;-62
2022/12/23 09:33:30;;;;;;;36.47;12.57;;;7.20;99.90;;;;;;5063168;28;20360;-61
2022/12/23 09:35:59;;;;;;;30.80;12.50;;;7.10;99.90;;;;;;5074874;28;20044;-62
2022/12/23 09:38:24;;;;;;;28.40;13.10;;;7.20;99.90;;;;;;5032937;28;20382;-61
2022/12/23 09:40:50;;;;;;;24.85;11.07;;;7.20;99.90;;;;;;5069272;28;20036;-62
2022/12/23 09:43:31;;;;;;;25.83;11.80;;;7.10;99.90;;;;;;5041081;28;20060;-62
2022/12/23 09:45:56;;;;;;;25.40;11.85;;;7.20;99.90;;;;;;5056967;28;20045;-63
2022/12/23 09:48:27;;;;;;;25.27;11.77;;;7.10;99.90;;;;;;5062926;28;20077;-63
2022/12/23 09:50:54;;;;;;;24.42;11.43;;;7.20;99.90;;;;;;5078615;28;20036;-63
2022/12/23 09:53:24;;;;;;;24.70;12.95;;;7.30;99.90;;;;;;5047541;28;20056;-62
2022/12/23 09:55:55;;;;;;;25.25;10.98;;;7.20;99.90;;;;;;5071104;28;20089;-63
2022/12/23 09:58:26;;;;;;;24.10;11.27;;;7.30;99.90;;;;;;5056043;28;20044;-63
2022/12/23 10:01:19;;;;;;;32.25;15.63;;;7.20;99.90;;;;;;5074302;28;20047;-62
2022/12/23 10:03:57;;;;;;;30.63;15.63;;;7.50;99.90;;;;;;5025079;28;20056;-63
2022/12/23 10:06:27;;;;;;;24.65;13.05;;;7.40;99.90;;;;;;5057918;28;20052;-63
2022/12/23 10:08:57;;;;;;;;;;;7.50;99.90;;;;;;5056220;28;20838;-64
2022/12/23 10:11:39;;;;;;;26.27;14.73;;;7.60;99.90;;;;;;5060886;28;20050;-65
2022/12/23 10:14:27;;;;;;;24.20;12.43;;;7.60;99.90;;;;;;5046982;28;20068;-66
2022/12/23 10:16:58;;;;;;;28.52;14.77;;;7.60;99.90;;;;;;5058633;28;20492;-66
2022/12/23 10:19:32;;;;;;;24.13;12.00;;;7.70;99.90;;;;;;5036599;28;20056;-65
2022/12/23 10:22:03;;;;;;;23.30;11.57;;;7.60;99.90;;;;;;5056887;28;20498;-66
2022/12/23 10:24:41;;;;;;;25.83;12.43;;;7.80;99.90;;;;;;5039229;28;20114;-66
2022/12/23 10:27:25;;;;;;;28.73;14.00;;;7.80;99.90;;;;;;5054037;28;20053;-66
2022/12/23 10:29:51;;;;;;;23.88;12.23;;;7.70;99.90;;;;;;5029871;28;20049;-66
2022/12/23 10:32:26;;;;;;;28.42;13.32;;;7.80;99.90;;;;;;5043648;28;20052;-66
2022/12/23 10:35:26;;;;;;;29.40;13.93;;;7.80;99.90;;;;;;5014675;28;20055;-65
2022/12/23 10:38:07;;;;;;;21.33;11.63;;;7.80;99.90;;;;;;5038460;28;20044;-65
2022/12/23 10:40:48;;;;;;;21.95;10.52;;;7.80;99.90;;;;;;5048949;28;20070;-65
2022/12/23 10:43:37;;;;;;;19.63;9.95;;;7.90;99.90;;;;;;5031873;28;20081;-65
2022/12/23 10:46:15;;;;;;;21.52;10.57;;;8.00;99.90;;;;;;5042969;28;20077;-66
2022/12/23 10:48:48;;;;;;;17.77;10.02;;;7.90;99.90;;;;;;5020237;28;20096;-65
2022/12/23 10:51:33;;;;;;;20.52;10.20;;;7.90;99.90;;;;;;5034960;28;20104;-66
2022/12/23 10:54:08;;;;;;;27.05;12.63;;;8.00;99.90;;;;;;5022216;28;20049;-66
2022/12/23 10:56:34;;;;;;;25.00;12.45;;;7.90;99.90;;;;;;5030792;28;20076;-66
2022/12/23 10:59:00;;;;;;;25.88;13.30;;;8.00;99.90;;;;;;5033709;28;20057;-66
2022/12/23 11:01:29;;;;;;;28.50;15.00;;;8.20;99.90;;;;;;5035663;28;20052;-66
2022/12/23 11:04:00;;;;;;;25.77;12.70;;;8.20;99.90;;;;;;5010705;28;20101;-66
2022/12/23 11:06:26;;;;;;;24.80;12.43;;;8.10;99.90;;;;;;5027084;28;20628;-66
2022/12/23 11:08:53;;;;;;;24.42;12.18;;;8.10;99.90;;;;;;5004567;28;20067;-66
2022/12/23 11:11:19;;;;;;;21.15;11.50;;;8.20;99.90;;;;;;5041586;28;20859;-62
2022/12/23 11:13:45;;;;;;;26.52;12.93;;;8.20;99.90;;;;;;5028708;28;20064;-62
2022/12/23 11:16:20;;;;;;;28.23;12.70;;;8.10;99.90;;;;;;5047293;28;20053;-62
2022/12/23 11:19:00;;;;;;;24.73;12.05;;;8.10;99.90;;;;;;5018784;28;20041;-65
2022/12/23 11:21:27;;;;;;;26.83;13.63;;;8.20;99.90;;;;;;5038857;28;20044;-65
2022/12/23 11:24:31;;;;;;;27.67;13.27;;;8.20;99.90;;;;;;5021802;28;20064;-66
2022/12/23 11:27:06;;;;;;;26.55;13.70;;;8.10;99.90;;;;;;4977774;28;20052;-65
2022/12/23 11:29:37;;;;;;;27.15;12.45;;;8.20;99.90;;;;;;4971269;28;20058;-66
2022/12/23 11:32:19;;;;;;;25.30;13.05;;;8.10;99.90;;;;;;4995449;28;20261;-66
2022/12/23 11:34:46;;;;;;;24.45;11.95;;;8.20;99.90;;;;;;4977477;28;20554;-65
2022/12/23 11:37:40;;;;;;;28.08;13.77;;;8.20;99.90;;;;;;4978287;28;20042;-65
2022/12/23 11:40:20;;;;;;;30.10;14.43;;;8.20;99.90;;;;;;4952431;28;20062;-65
2022/12/23 11:42:46;;;;;;;27.35;14.15;;;8.20;99.90;;;;;;4952157;28;20054;-66
2022/12/23 11:45:21;;;;;;;33.05;15.18;;;8.20;99.90;;;;;;4961068;28;20089;-66
2022/12/23 11:47:47;;;;;;;35.30;14.95;;;8.30;99.90;;;;;;4969089;28;20134;-63
2022/12/23 11:50:19;;;;;;;31.83;16.08;;;8.30;99.90;;;;;;4979824;28;20050;-66
2022/12/23 11:52:53;;;;;;;33.03;16.25;;;8.20;99.90;;;;;;4968348;28;20050;-63
2022/12/23 11:55:25;;;;;;;32.30;17.23;;;8.30;99.90;;;;;;4980525;28;20069;-64
2022/12/23 11:57:51;;;;;;;32.15;16.40;;;8.30;99.90;;;;;;4970531;28;20054;-64
2022/12/23 12:00:24;;;;;;;32.00;15.75;;;8.20;99.90;;;;;;4978566;28;20056;-66
2022/12/23 12:02:54;;;;;;;32.05;15.63;;;8.30;99.90;;;;;;5055663;28;20037;-63
2022/12/23 12:05:28;;;;;;;29.10;16.48;;;8.20;99.90;;;;;;5037458;28;20135;-64
2022/12/23 12:07:59;;;;;;;33.50;16.70;;;8.20;99.90;;;;;;5033694;28;20099;-63
2022/12/23 12:10:28;;;;;;;27.60;14.50;;;8.20;99.90;;;;;;5043283;28;20033;-64
2022/12/23 12:13:01;;;;;;;26.02;13.65;;;8.40;99.90;;;;;;5045418;28;20068;-64
2022/12/23 12:15:43;;;;;;;27.08;13.88;;;8.20;99.90;;;;;;5032133;28;20055;-64
2022/12/23 12:18:16;;;;;;;29.20;13.20;;;8.30;99.90;;;;;;5035551;28;20060;-63
2022/12/23 12:20:47;;;;;;;28.77;14.95;;;8.20;99.90;;;;;;5053791;28;20067;-64
2022/12/23 12:23:39;;;;;;;27.95;14.05;;;8.30;99.90;;;;;;5045861;28;20053;-63
2022/12/23 12:26:12;;;;;;;30.75;14.15;;;8.30;99.90;;;;;;5036959;28;20607;-64
2022/12/23 12:28:42;;;;;;;28.40;13.93;;;8.30;99.90;;;;;;5021518;28;20057;-63
2022/12/23 12:31:22;;;;;;;26.17;13.68;;;8.30;99.90;;;;;;5047928;28;20034;-63
2022/12/23 12:34:04;;;;;;;29.80;15.05;;;8.40;99.90;;;;;;5041194;28;20049;-64
2022/12/23 12:36:51;;;;;;;29.48;14.80;;;8.30;99.90;;;;;;5055318;28;20049;-63
2022/12/23 12:39:29;;;;;;;27.15;14.73;;;8.40;99.90;;;;;;5034764;28;20057;-64
2022/12/23 12:42:25;;;;;;;28.65;14.85;;;8.50;99.90;;;;;;5052467;28;20056;-63
2022/12/23 12:45:19;;;;;;;30.90;15.93;;;8.40;99.90;;;;;;5054563;28;20228;-63
2022/12/23 12:48:22;;;;;;;28.40;15.32;;;8.40;99.90;;;;;;5058107;28;20064;-64
2022/12/23 12:51:08;;;;;;;24.40;13.48;;;8.50;99.90;;;;;;5020382;28;20053;-63
2022/12/23 12:53:37;;;;;;;27.52;15.43;;;8.40;99.90;;;;;;5045954;28;20049;-63
2022/12/23 12:56:11;;;;;;;27.63;15.70;;;8.50;99.90;;;;;;5045105;28;20049;-64
2022/12/23 12:58:39;;;;;;;31.45;16.38;;;8.30;99.90;;;;;;5038154;28;20073;-63
2022/12/23 13:01:18;;;;;;;27.38;15.48;;;8.50;99.90;;;;;;5039733;28;20049;-63
2022/12/23 13:04:03;;;;;;;30.50;16.45;;;8.30;99.90;;;;;;5045815;28;20045;-63
2022/12/23 13:06:44;;;;;;;27.75;14.93;;;8.50;99.90;;;;;;5069913;28;20429;-64
2022/12/23 13:09:21;;;;;;;33.28;16.63;;;8.30;99.90;;;;;;5047930;28;20041;-63
2022/12/23 13:11:56;;;;;;;31.85;16.00;;;8.30;99.90;;;;;;5054855;28;20456;-63
2022/12/23 13:14:34;;;;;;;35.83;17.70;;;8.40;99.90;;;;;;5031111;28;20037;-64
2022/12/23 13:17:24;;;;;;;32.38;15.73;;;8.30;99.90;;;;;;5054403;28;20045;-63
2022/12/23 13:20:14;;;;;;;37.95;17.10;;;8.20;99.90;;;;;;5060243;28;20056;-63
2022/12/23 13:22:42;;;;;;;45.42;21.27;;;8.30;99.90;;;;;;5047186;28;20037;-63
2022/12/23 13:25:29;;;;;;;38.05;17.90;;;8.30;99.90;;;;;;5061147;28;20056;-63
2022/12/23 13:28:15;;;;;;;33.70;16.95;;;8.40;99.90;;;;;;5058707;28;20346;-63